METAR Formatted Surface Weather Observation
Issued by NWS

Home | Current Version | Previous Version | Text Only | Print | Product List | Glossary On
Versions: 1
000
SAUS41 KLWX 241503 COR
MTRRYT
METAR KRYT 241453Z AUTO 34006KT FEW014 SCT100 03/02 A2951 RMK AO2
SLP005 T00330022 53008 TSNO $



USA.gov is the U.S. government's official web portal to all federal, state and local government web resources and services.